• Join FlightAware (Why Join?)
  • Login
  • US Flag 
Rudolph Flight #1: Arrived! 
01:17AM EST


 

Airport Tracker/Info


-or-


 

Live Flight TrackerFlight Track Log ✈ N20CJ ✈ 06-Aug-2013 ✈ KTOA - MMNG

Flight Track Log - Related Links

Times and Time Zones

All times are in EDT time to prevent confusion due to time zone crossing. See the N20CJ flight status page for this flight to view local times or setup timezone preferences in your user account.

Time Position Orientation Groundspeed Altitude Reporting Facility
EDT Latitude Longitude Course Direction KTS MPH feet Rate Location/Type
10:46AM 33.8167 -118.3667 320° Northwest 92 106 1,400  Level Southern California TRACON
10:47AM 33.8333 -118.3833 320° Northwest 100 115 2,100 720 Climbing Southern California TRACON
10:48AM 33.8167 -118.4000 220° Southwest 98 113 2,800 660 Climbing Southern California TRACON
10:49AM 33.7942 -118.3783 141° Southeast 96 110 3,500 600 Climbing Los Angeles Center
10:50AM 33.7728 -118.3581 142° Southeast 96 110 4,100 540 Climbing Los Angeles Center
10:51AM 33.7561 -118.3311 127° Southeast 100 115 4,700 480 Climbing Los Angeles Center
10:52AM 33.7619 -118.2944 79° East 108 124 5,200 180 Climbing Los Angeles Center
10:53AM 33.7664 -118.2481 83° East 124 143 5,100 240 Descending Los Angeles Center
10:54AM 33.7697 -118.2094 84° East 124 143 5,800 420 Climbing Los Angeles Center
10:55AM 33.7739 -118.1619 84° East 118 136 6,000 60 Climbing Los Angeles Center
10:56AM 33.7789 -118.1125 83° East 137 158 6,000  Level Los Angeles Center
10:57AM 33.7833 -118.0833 80° East 143 165 6,000 60 Level Southern California TRACON
10:58AM 33.7833 -118.0333 90° East 145 167 6,100 120 Climbing Southern California TRACON
11:00AM 33.7667 -117.9333 101° East 129 148 6,400 180 Climbing Southern California TRACON
11:01AM 33.7667 -117.9000 90° East 123 142 6,800 420 Climbing Southern California TRACON
11:02AM 33.7333 -117.8667 140° Southeast 121 139 7,300 420 Climbing Southern California TRACON
11:03AM 33.7167 -117.8333 121° Southeast 121 139 7,800 420 Climbing Southern California TRACON
11:04AM 33.7167 -117.7833 90° East 124 143 8,200 360 Climbing Southern California TRACON
11:05AM 33.7333 -117.7500 59° Northeast 121 139 8,600 420 Climbing Southern California TRACON
11:06AM 33.7500 -117.7167 59° Northeast 117 135 9,100 300 Climbing Southern California TRACON
11:07AM 33.7500 -117.6833 90° East 135 155 9,200 120 Climbing Southern California TRACON
11:08AM 33.7500 -117.6333 90° East 130 150 9,400 240 Climbing Southern California TRACON
11:08AM 33.7514 -117.6103 86° East 131 151 9,600 360 Climbing Los Angeles Center
11:09AM 33.7486 -117.5703 95° East 123 142 10,000 300 Climbing Los Angeles Center
11:10AM 33.7453 -117.5322 96° East 117 135 10,300 300 Climbing Los Angeles Center
11:11AM 33.7414 -117.4953 97° East 113 130 10,700 360 Climbing Los Angeles Center
11:12AM 33.7389 -117.4583 95° East 112 129 11,100 180 Climbing Los Angeles Center
11:13AM 33.7344 -117.4108 96° East 118 136 11,100  Level Los Angeles Center
11:14AM 33.7314 -117.3658 95° East 132 152 11,100  Level Los Angeles Center
11:16AM 33.7256 -117.3225 99° East 132 152 11,100  Level Los Angeles Center
11:17AM 33.7239 -117.2783 93° East 132 152 11,100  Level Los Angeles Center
11:18AM 33.7189 -117.2250 96° East 134 154 11,100  Level Los Angeles Center
11:19AM 33.7164 -117.1800 94° East 134 154 11,100  Level Los Angeles Center
11:20AM 33.7111 -117.1264 97° East 135 155 11,100  Level Los Angeles Center
11:21AM 33.7075 -117.0742 95° East 132 152 11,100  Level Los Angeles Center
11:22AM 33.7042 -117.0294 95° East 134 154 11,100  Level Los Angeles Center
11:23AM 33.7006 -116.9861 96° East 133 153 11,100  Level Los Angeles Center
11:24AM 33.6969 -116.9422 96° East 131 151 11,100  Level Los Angeles Center
11:25AM 33.6928 -116.8900 95° East 131 151 11,100 -120 Level Los Angeles Center
11:26AM 33.6889 -116.8464 96° East 132 152 10,900 -120 Descending Los Angeles Center
11:28AM 33.6861 -116.7931 94° East 132 152 10,900  Level Los Angeles Center
11:29AM 33.6817 -116.7511 97° East 131 151 10,900  Level Los Angeles Center
11:30AM 33.6786 -116.7075 95° East 130 150 10,900  Level Los Angeles Center
11:31AM 33.6756 -116.6633 95° East 131 151 10,900  Level Los Angeles Center
11:32AM 33.6706 -116.6108 97° East 131 151 10,900  Level Los Angeles Center
11:33AM 33.6669 -116.5672 96° East 132 152 10,900  Level Los Angeles Center
11:34AM 33.6625 -116.5244 97° East 131 151 10,900  Level Los Angeles Center
11:35AM 33.6594 -116.4900 96° East 130 150 10,900  Level Los Angeles Center
11:36AM 33.6553 -116.4383 96° East 130 150 10,900  Level Los Angeles Center
11:37AM 33.6514 -116.3947 96° East 130 150 10,900  Level Los Angeles Center
11:38AM 33.6475 -116.3436 95° East 130 150 10,900  Level Los Angeles Center
11:39AM 33.6433 -116.2917 95° East 130 150 10,900 -60 Level Los Angeles Center
11:40AM 33.6378 -116.2392 97° East 130 150 10,800 -120 Descending Los Angeles Center
11:41AM 33.6344 -116.2003 96° East 136 157 10,700 -180 Descending Los Angeles Center
11:42AM 33.6283 -116.1425 97° East 144 166 10,500 -180 Descending Los Angeles Center
11:44AM 33.6292 -116.0842 89° East 146 168 10,300 -180 Descending Los Angeles Center
11:45AM 33.6281 -116.0269 91° East 144 166 10,100 -180 Descending Los Angeles Center
11:46AM 33.6269 -115.9775 92° East 145 167 10,000 -180 Descending Los Angeles Center
11:47AM 33.6253 -115.9286 92° East 147 169 9,800 -240 Descending Los Angeles Center
11:48AM 33.6256 -115.8797 90° East 147 169 9,600 -300 Descending Los Angeles Center
11:49AM 33.6242 -115.8275 92° East 151 174 9,200 -300 Descending Los Angeles Center
11:50AM 33.6228 -115.7658 92° East 154 177 9,000 -120 Descending Los Angeles Center
11:51AM 33.6225 -115.7164 90° East 149 171 9,000  Level Los Angeles Center
11:52AM 33.6211 -115.6683 92° East 145 167 9,000  Level Los Angeles Center
11:53AM 33.6200 -115.6203 92° East 145 167 9,000  Level Los Angeles Center
11:54AM 33.6189 -115.5619 91° East 145 167 9,100  Climbing Los Angeles Center
11:55AM 33.6172 -115.5039 92° East 146 168 9,100  Level Los Angeles Center
11:56AM 33.6153 -115.4550 93° East 146 168 9,100  Level Los Angeles Center
11:57AM 33.6156 -115.4067 90° East 146 168 9,100  Level Los Angeles Center
11:59AM 33.6147 -115.3569 91° East 148 170 9,100  Level Los Angeles Center
12:00PM 33.6131 -115.2978 92° East 148 170 9,100  Level Los Angeles Center
12:01PM 33.6108 -115.2486 93° East 147 169 9,100  Level Los Angeles Center
12:02PM 33.6100 -115.1897 91° East 148 170 9,100  Level Los Angeles Center
12:03PM 33.6075 -115.1306 93° East 148 170 9,100  Level Los Angeles Center
12:04PM 33.6069 -115.0817 91° East 148 170 9,100  Level Los Angeles Center
12:05PM 33.6058 -115.0336 92° East 146 168 9,100  Level Los Angeles Center
12:06PM 33.6047 -114.9844 92° East 146 168 9,100  Level Los Angeles Center
12:07PM 33.6025 -114.9164 92° East 146 168 9,100  Level Los Angeles Center
12:08PM 33.6011 -114.8692 92° East 144 166 9,100  Level Los Angeles Center
12:10PM 33.5994 -114.8250 93° East 142 163 9,100  Level Los Angeles Center
12:11PM 33.5975 -114.7653 92° East 144 166 9,100  Level Los Angeles Center
12:12PM 33.5947 -114.7183 94° East 142 163 9,100  Level Los Angeles Center
12:13PM 33.5917 -114.6708 94° East 142 163 9,100  Level Los Angeles Center
12:14PM 33.5872 -114.6131 95° East 144 166 9,100  Level Los Angeles Center
12:15PM 33.5836 -114.5550 94° East 146 168 9,100  Level Los Angeles Center
12:16PM 33.5817 -114.5081 93° East 142 163 9,100  Level Los Angeles Center
12:17PM 33.5772 -114.4594 96° East 144 166 9,100  Level Los Angeles Center
12:18PM 33.5744 -114.4103 94° East 145 167 9,100  Level Los Angeles Center
12:19PM 33.5717 -114.3639 94° East 146 168 9,100  Level Albuquerque Center
12:20PM 33.5694 -114.3178 93° East 141 162 9,100  Level Albuquerque Center
12:21PM 33.5664 -114.2694 94° East 143 165 9,100  Level Albuquerque Center
12:22PM 33.5628 -114.2244 95° East 139 160 9,100  Level Albuquerque Center
12:23PM 33.5603 -114.1761 94° East 142 163 9,100  Level Albuquerque Center
12:24PM 33.5569 -114.1294 95° East 141 162 9,100  Level Albuquerque Center
12:25PM 33.5522 -114.0714 96° East 145 167 9,100  Level Albuquerque Center
12:26PM 33.5489 -114.0244 95° East 143 165 9,100  Level Albuquerque Center
12:27PM 33.5450 -113.9764 96° East 144 166 9,100  Level Albuquerque Center
12:28PM 33.5397 -113.9289 98° East 144 166 9,100  Level Albuquerque Center
12:29PM 33.5181 -113.8900 124° Southeast 141 162 9,100  Level Albuquerque Center
12:30PM 33.5000 -113.8475 117° Southeast 142 163 9,100  Level Albuquerque Center
12:31PM 33.4769 -113.7975 119° Southeast 142 163 9,100  Level Albuquerque Center
12:32PM 33.4578 -113.7564 119° Southeast 142 163 9,100  Level Albuquerque Center
12:33PM 33.4386 -113.7136 118° Southeast 144 166 9,100  Level Albuquerque Center
12:34PM 33.4200 -113.6722 118° Southeast 143 165 9,100  Level Albuquerque Center
12:35PM 33.4008 -113.6289 118° Southeast 146 168 9,100  Level Albuquerque Center
12:36PM 33.3803 -113.5842 119° Southeast 150 173 9,100  Level Albuquerque Center
12:37PM 33.3564 -113.5314 118° Southeast 151 174 9,100  Level Albuquerque Center
12:39PM 33.3369 -113.4889 119° Southeast 148 170 9,100  Level Albuquerque Center
12:40PM 33.3158 -113.4456 120° Southeast 149 171 9,100  Level Albuquerque Center
12:41PM 33.2961 -113.4014 118° Southeast 150 173 9,100  Level Albuquerque Center
12:42PM 33.2764 -113.3572 118° Southeast 150 173 9,100  Level Albuquerque Center
12:43PM 33.2564 -113.3150 120° Southeast 149 171 9,100  Level Albuquerque Center
12:44PM 33.2322 -113.2636 119° Southeast 148 170 9,100  Level Albuquerque Center
12:45PM 33.2133 -113.2200 117° Southeast 147 169 9,100  Level Albuquerque Center
12:46PM 33.1931 -113.1778 120° Southeast 146 168 9,200  Climbing Albuquerque Center
12:47PM 33.1733 -113.1364 120° Southeast 145 167 9,200  Level Albuquerque Center
12:48PM 33.1542 -113.0936 118° Southeast 145 167 9,200 -120 Level Albuquerque Center
12:49PM 33.1347 -113.0517 119° Southeast 144 166 9,000 -120 Descending Albuquerque Center
12:50PM 33.1106 -112.9986 119° Southeast 149 171 9,000  Level Albuquerque Center
12:51PM 33.0906 -112.9567 120° Southeast 148 170 9,000  Level Albuquerque Center
12:52PM 33.0733 -112.9197 119° Southeast 135 155 9,000  Level Albuquerque Center
12:53PM 33.0519 -112.8800 123° Southeast 140 161 9,000  Level Albuquerque Center
12:54PM 33.0356 -112.8378 115° Southeast 138 159 9,000  Level Albuquerque Center
12:55PM 33.0142 -112.7983 123° Southeast 137 158 9,000  Level Albuquerque Center
12:56PM 32.9933 -112.7528 119° Southeast 143 165 9,000  Level Albuquerque Center
12:57PM 32.9756 -112.7117 117° Southeast 146 168 9,000  Level Albuquerque Center
12:58PM 32.9550 -112.6639 117° Southeast 145 167 9,000  Level Albuquerque Center
12:59PM 32.9319 -112.6214 123° Southeast 146 168 9,000  Level Albuquerque Center
01:00PM 32.9150 -112.5800 116° Southeast 146 168 9,000  Level Albuquerque Center
01:01PM 32.8878 -112.5289 122° Southeast 143 165 9,000  Level Albuquerque Center
01:02PM 32.8747 -112.4986 117° Southeast 141 162 9,000  Level Albuquerque Center
01:03PM 32.8525 -112.4489 118° Southeast 141 162 9,000  Level Albuquerque Center
01:04PM 32.8325 -112.4092 121° Southeast 141 162 9,000  Level Albuquerque Center
01:05PM 32.8133 -112.3689 120° Southeast 141 162 9,000  Level Albuquerque Center
01:06PM 32.7944 -112.3292 119° Southeast 140 161 9,000  Level Albuquerque Center
01:07PM 32.7744 -112.2886 120° Southeast 140 161 9,000  Level Albuquerque Center
01:08PM 32.7550 -112.2494 121° Southeast 139 160 9,000  Level Albuquerque Center
01:10PM 32.7331 -112.2033 119° Southeast 137 158 9,000  Level Albuquerque Center
01:11PM 32.7153 -112.1636 118° Southeast 138 159 9,000  Level Albuquerque Center
01:12PM 32.6956 -112.1250 121° Southeast 137 158 9,000  Level Albuquerque Center
01:13PM 32.6772 -112.0867 120° Southeast 136 157 9,000  Level Albuquerque Center
01:14PM 32.6575 -112.0467 120° Southeast 139 160 9,000  Level Albuquerque Center
01:15PM 32.6383 -112.0072 120° Southeast 139 160 9,000  Level Albuquerque Center
01:16PM 32.6153 -111.9600 120° Southeast 139 160 9,100  Climbing Albuquerque Center
01:17PM 32.5958 -111.9197 120° Southeast 140 161 9,100  Level Albuquerque Center
01:18PM 32.5764 -111.8792 120° Southeast 141 162 9,100  Level Albuquerque Center
01:19PM 32.5567 -111.8381 120° Southeast 143 165 9,100  Level Albuquerque Center
01:20PM 32.5369 -111.7983 120° Southeast 142 163 9,100  Level Albuquerque Center
01:21PM 32.5169 -111.7592 121° Southeast 140 161 9,100  Level Albuquerque Center
01:22PM 32.4953 -111.7106 118° Southeast 138 159 9,100  Level Albuquerque Center
01:23PM 32.4739 -111.6731 124° Southeast 138 159 9,100  Level Albuquerque Center
01:24PM 32.4556 -111.6350 120° Southeast 135 155 9,100  Level Albuquerque Center
01:25PM 32.4381 -111.5956 118° Southeast 135 155 9,100  Level Albuquerque Center
01:26PM 32.4186 -111.5575 121° Southeast 136 157 9,100 120 Level Albuquerque Center
01:27PM 32.3986 -111.5208 123° Southeast 127 146 9,400 360 Climbing Albuquerque Center
01:28PM 32.3819 -111.4900 123° Southeast 115 132 9,800 300 Climbing Albuquerque Center
01:29PM 32.3656 -111.4592 122° Southeast 111 128 10,100 240 Climbing Albuquerque Center
01:30PM 32.3514 -111.4300 120° Southeast 107 123 10,400 300 Climbing Albuquerque Center
01:31PM 32.3381 -111.3947 114° Southeast 104 120 10,800 240 Climbing Albuquerque Center
01:32PM 32.3197 -111.3653 126° Southeast 102 117 11,000 120 Climbing Albuquerque Center
01:33PM 32.3081 -111.3383 117° Southeast 101 116 11,100  Climbing Albuquerque Center
01:34PM 32.2933 -111.3036 117° Southeast 100 115 11,000 -60 Descending Albuquerque Center
01:35PM 32.2803 -111.2828 127° Southeast 99 114 11,000 -180 Level Albuquerque Center
01:36PM 32.2669 -111.2586 123° Southeast 95 109 10,700 -600 Descending Albuquerque Center
01:37PM 32.2528 -111.2294 120° Southeast 100 115 9,900 -840 Descending Albuquerque Center
01:38PM 32.2417 -111.2047 118° Southeast 93 107 9,200 -720 Descending Albuquerque Center
01:39PM 32.2283 -111.1806 123° Southeast 92 106 8,600 -660 Descending Albuquerque Center
01:40PM 32.2167 -111.1536 117° Southeast 91 105 7,900 -660 Descending Albuquerque Center
01:41PM 32.2025 -111.1247 120° Southeast 100 115 7,300 -660 Descending Albuquerque Center
01:42PM 32.1864 -111.0961 124° Southeast 106 122 6,600 -720 Descending Albuquerque Center
01:43PM 32.1692 -111.0631 122° Southeast 115 132 5,900 -600 Descending Albuquerque Center
01:44PM 32.1539 -111.0294 118° Southeast 113 130 5,500 -240 Descending Albuquerque Center
01:45PM 32.1367 -110.9964 122° Southeast 112 129 5,500  Level Albuquerque Center
01:46PM 32.1219 -110.9650 119° Southeast 114 131 5,500  Level Albuquerque Center
01:47PM 32.1044 -110.9294 120° Southeast 115 132 5,500  Level Albuquerque Center
01:48PM 32.0789 -110.9086 145° Southeast 115 132 5,500  Level Albuquerque Center
01:49PM 32.0489 -110.9092 181° South 114 131 5,500  Level Albuquerque Center
01:50PM 32.0186 -110.9075 177° South 116 133 5,500  Level Albuquerque Center
01:51PM 31.9878 -110.9033 173° South 113 130 5,500  Level Albuquerque Center
01:52PM 31.9575 -110.9014 177° South 113 130 5,500  Level Albuquerque Center
01:53PM 31.9222 -110.8958 172° South 114 131 5,500  Level Albuquerque Center
01:54PM 31.8872 -110.8928 176° South 118 136 5,500  Level Albuquerque Center
01:55PM 31.8547 -110.8914 178° South 116 133 5,500  Level Albuquerque Center
01:56PM 31.8239 -110.8872 173° South 114 131 5,500  Level Albuquerque Center
01:57PM 31.7914 -110.8961 193° South 129 148 5,500  Level Albuquerque Center
01:58PM 31.7636 -110.9186 215° Southwest 130 150 5,500 60 Level Albuquerque Center
01:59PM 31.7394 -110.9478 226° Southwest 124 143 5,700 420 Climbing Albuquerque Center
02:00PM 31.7042 -110.9647 202° Southwest 133 153 6,400 360 Climbing Albuquerque Center
02:01PM 31.6683 -110.9669 183° South 136 157 6,500  Climbing Albuquerque Center
02:02PM 31.6350 -110.9608 171° South 125 144 6,500  Level Albuquerque Center
02:03PM 31.6017 -110.9547 171° South 118 136 6,500  Level Albuquerque Center
02:04PM 31.5708 -110.9506 173° South 120 138 6,500  Level Albuquerque Center
02:05PM 31.5414 -110.9433 168° South 114 131 6,500  Level Albuquerque Center
02:06PM 31.5344 -110.9403 159° South 114 131 6,500  Level Albuquerque Center
02:08PM 31.4800 -110.9350 175° South 112 129 6,500  Level Albuquerque Center
02:08PM 31.4733 -110.9342 174° South 112 129 6,500  Level Albuquerque Center
02:10PM 31.4693 -110.8833 95° East  Level FlightAware Approximate
02:17PM 31.2616 -110.9398 207° Southwest  Level FlightAware Approximate
02:18PM 31.2288 -110.9594 207° Southwest  Level FlightAware Approximate
02:19PM 31.2167 -110.9667 207° Southwest  Level FlightAware Approximate
02:20PM 31.2167 -110.9667 207° Southwest  Level FlightAware Approximate
02:21PM 31.2167 -110.9667 207° Southwest  Level FlightAware Approximate
02:22PM 31.2167 -110.9667 207° Southwest  Level FlightAware Approximate
02:23PM 31.2167 -110.9667 207° Southwest  Level FlightAware Approximate
02:24PM 31.2167 -110.9667 207° Southwest  Level FlightAware Approximate
02:25PM 31.2167 -110.9667 207° Southwest  Level FlightAware Approximate
02:26PM 31.2167 -110.9667 207° Southwest  Level FlightAware Approximate
02:27PM 31.2167 -110.9667 207° Southwest  Level FlightAware Approximate
02:28PM 31.2167 -110.9667 207° Southwest  Level FlightAware Approximate
02:29PM 31.2167 -110.9667 207° Southwest  Level FlightAware Approximate
02:30PM 31.2167 -110.9667 207° Southwest  Level FlightAware Approximate
02:31PM 31.2167 -110.9667 207° Southwest  Level FlightAware Approximate
02:32PM 31.2167 -110.9667 207° Southwest  Level FlightAware Approximate
02:33PM 31.2167 -110.9667 207° Southwest  Level FlightAware Approximate